Time;durP1;ratioP1;P1;durP2;ratioP2;P2;SDS_P1;SDS_P2;PMS_P1;PMS_P2;Temp;Humidity;BMP_temperature;BMP_pressure;BME280_temperature;BME280_humidity;BME280_pressure;Samples;Min_cycle;Max_cycle;Signal;HPM_P1;HPM_P2
2022/11/13 00:00:32;;;;;;;19.83;15.45;;;6.70;99.90;;;;;;5094542;28;20043;-59
2022/11/13 00:02:58;;;;;;;18.70;15.70;;;6.60;99.90;;;;;;5093378;28;20032;-59
2022/11/13 00:05:23;;;;;;;20.67;15.65;;;6.60;99.90;;;;;;5094451;28;20032;-59
2022/11/13 00:07:49;;;;;;;21.50;14.75;;;6.70;99.90;;;;;;5094723;28;20043;-59
2022/11/13 00:10:15;;;;;;;20.08;15.48;;;6.70;99.90;;;;;;5094615;28;20478;-59
2022/11/13 00:12:41;;;;;;;21.92;15.60;;;6.70;99.90;;;;;;5094618;28;20036;-59
2022/11/13 00:15:07;;;;;;;22.02;16.90;;;6.80;99.90;;;;;;5094513;28;20530;-59
2022/11/13 00:17:32;;;;;;;22.20;15.82;;;6.80;99.90;;;;;;5092420;28;20039;-59
2022/11/13 00:19:58;;;;;;;22.23;16.52;;;6.90;99.90;;;;;;5092350;28;20526;-59
2022/11/13 00:22:23;;;;;;;22.33;16.38;;;6.80;99.90;;;;;;5093343;28;20036;-59
2022/11/13 00:24:49;;;;;;;22.27;15.80;;;6.80;99.90;;;;;;5094094;28;20044;-59
2022/11/13 00:27:15;;;;;;;20.42;16.50;;;6.80;99.90;;;;;;5094478;28;20510;-59
2022/11/13 00:29:40;;;;;;;23.02;15.85;;;6.80;99.90;;;;;;5094398;28;20044;-59
2022/11/13 00:32:06;;;;;;;21.08;15.88;;;6.80;99.90;;;;;;5094178;28;20039;-59
2022/11/13 00:34:32;;;;;;;21.45;15.73;;;6.80;99.90;;;;;;5094428;28;20529;-59
2022/11/13 00:36:57;;;;;;;21.13;16.85;;;6.80;99.90;;;;;;5094021;28;20036;-59
2022/11/13 00:39:23;;;;;;;23.08;17.27;;;6.90;99.90;;;;;;5094649;28;20043;-59
2022/11/13 00:41:48;;;;;;;23.98;17.40;;;6.90;99.90;;;;;;5094189;28;20371;-59
2022/11/13 00:44:14;;;;;;;23.70;17.02;;;6.90;99.90;;;;;;5094105;28;20485;-59
2022/11/13 00:46:40;;;;;;;21.88;16.15;;;7.00;99.90;;;;;;5092860;28;20032;-59
2022/11/13 00:49:05;;;;;;;25.20;16.92;;;7.00;99.90;;;;;;5092148;28;20039;-59
2022/11/13 00:51:31;;;;;;;22.10;16.77;;;7.10;99.90;;;;;;5092466;28;20096;-59
2022/11/13 00:53:57;;;;;;;25.80;17.15;;;7.10;99.90;;;;;;5093954;28;20047;-59
2022/11/13 00:56:22;;;;;;;23.33;16.73;;;7.20;99.90;;;;;;5094288;28;20496;-60
2022/11/13 00:58:48;;;;;;;24.63;18.42;;;7.10;99.90;;;;;;5094182;28;20048;-59
2022/11/13 01:01:16;;;;;;;27.02;18.92;;;7.10;99.90;;;;;;5094084;28;20481;-59
2022/11/13 01:03:42;;;;;;;21.45;18.10;;;7.20;99.90;;;;;;5093797;28;20036;-60
2022/11/13 01:06:09;;;;;;;23.75;18.15;;;7.50;99.90;;;;;;5094014;28;20039;-59
2022/11/13 01:08:35;;;;;;;22.55;17.58;;;7.20;99.90;;;;;;5093752;28;20047;-60
2022/11/13 01:11:08;;;;;;;20.52;16.83;;;7.30;99.90;;;;;;5093916;28;20048;-59
2022/11/13 01:13:34;;;;;;;23.55;17.85;;;7.30;99.90;;;;;;5093557;28;20032;-59
2022/11/13 01:16:03;;;;;;;20.90;17.02;;;7.30;99.90;;;;;;5093468;28;20387;-59
2022/11/13 01:18:29;;;;;;;22.52;17.05;;;7.30;99.90;;;;;;5091659;28;20032;-59
2022/11/13 01:21:02;;;;;;;24.92;17.92;;;7.30;99.90;;;;;;5091020;28;20036;-59
2022/11/13 01:23:37;;;;;;;28.38;19.75;;;7.30;99.90;;;;;;5093103;28;20075;-59
2022/11/13 01:26:09;;;;;;;28.35;19.85;;;7.30;99.90;;;;;;5093600;28;20479;-59
2022/11/13 01:28:35;;;;;;;28.73;20.33;;;7.40;99.90;;;;;;5093730;28;20044;-59
2022/11/13 01:31:04;;;;;;;27.25;19.92;;;7.40;99.90;;;;;;5093468;28;20511;-59
2022/11/13 01:33:30;;;;;;;27.08;20.40;;;7.40;99.90;;;;;;5093111;28;20044;-59
2022/11/13 01:36:07;;;;;;;28.17;20.15;;;7.40;99.90;;;;;;5092478;28;20040;-59
2022/11/13 01:38:33;;;;;;;28.63;20.15;;;7.40;99.90;;;;;;5093602;28;20047;-60
2022/11/13 01:40:59;;;;;;;26.25;20.85;;;7.40;99.90;;;;;;5093291;28;20054;-59
2022/11/13 01:43:28;;;;;;;26.45;20.65;;;7.40;99.90;;;;;;5093592;28;20455;-60
2022/11/13 01:46:03;;;;;;;;;;;7.50;99.90;;;;;;5093373;28;20071;-59
2022/11/13 01:48:36;;;;;;;28.83;21.23;;;7.50;99.90;;;;;;5091176;28;19923;-59
2022/11/13 01:51:10;;;;;;;26.73;20.73;;;7.50;99.90;;;;;;5088770;28;20490;-59
2022/11/13 01:53:35;;;;;;;29.75;20.45;;;7.50;99.90;;;;;;5092832;28;20157;-59
2022/11/13 01:56:01;;;;;;;26.27;20.50;;;7.50;99.90;;;;;;5092744;28;20551;-60
2022/11/13 01:58:27;;;;;;;27.58;20.70;;;7.50;99.90;;;;;;5092802;28;20109;-59
2022/11/13 02:00:53;;;;;;;30.40;21.35;;;7.50;99.90;;;;;;5092969;28;20047;-59
2022/11/13 02:03:19;;;;;;;28.33;19.50;;;7.50;99.90;;;;;;5092749;28;20133;-59
2022/11/13 02:05:45;;;;;;;25.17;18.63;;;7.60;99.90;;;;;;5092790;28;20047;-59
2022/11/13 02:08:10;;;;;;;27.27;18.70;;;7.50;99.90;;;;;;5092555;28;20051;-59
2022/11/13 02:10:36;;;;;;;23.88;17.70;;;7.60;99.90;;;;;;5092545;28;20040;-59
2022/11/13 02:13:02;;;;;;;24.67;18.58;;;7.60;99.90;;;;;;5092966;28;20035;-59
2022/11/13 02:15:32;;;;;;;30.98;17.88;;;7.60;99.90;;;;;;5092516;28;20040;-59
2022/11/13 02:17:59;;;;;;;23.42;17.50;;;7.60;99.90;;;;;;5091680;28;20082;-59
2022/11/13 02:20:44;;;;;;;23.40;16.70;;;7.60;99.90;;;;;;5090184;28;20517;-59
2022/11/13 02:23:24;;;;;;;25.10;17.75;;;7.60;99.90;;;;;;5091802;28;20123;-59
2022/11/13 02:25:53;;;;;;;22.73;18.20;;;7.60;99.90;;;;;;5092208;28;20386;-59
2022/11/13 02:28:19;;;;;;;25.00;19.38;;;7.60;99.90;;;;;;5092151;28;20089;-59
2022/11/13 02:30:45;;;;;;;23.35;18.17;;;7.60;99.90;;;;;;5091841;28;20032;-59
2022/11/13 02:33:22;;;;;;;27.38;19.05;;;7.60;99.90;;;;;;5092144;28;20044;-59
2022/11/13 02:35:48;;;;;;;24.33;19.08;;;7.60;99.90;;;;;;5091918;28;20075;-59
2022/11/13 02:38:13;;;;;;;23.95;18.20;;;7.70;99.90;;;;;;5092211;28;20563;-59
2022/11/13 02:40:39;;;;;;;26.17;18.23;;;7.70;99.90;;;;;;5092092;28;20040;-59
2022/11/13 02:43:04;;;;;;;27.48;18.38;;;7.60;99.90;;;;;;5092044;28;20119;-59
2022/11/13 02:45:30;;;;;;;24.15;17.85;;;7.60;99.90;;;;;;5092153;28;20055;-59
2022/11/13 02:47:58;;;;;;;24.48;18.02;;;7.60;99.90;;;;;;5090935;28;20047;-59
2022/11/13 02:50:24;;;;;;;23.17;17.45;;;7.60;99.90;;;;;;5092800;28;20078;-59
2022/11/13 02:52:50;;;;;;;26.38;17.13;;;7.60;99.90;;;;;;5095587;28;20469;-59
2022/11/13 02:55:15;;;;;;;27.33;17.65;;;7.60;99.90;;;;;;5096326;28;20047;-59
2022/11/13 02:57:41;;;;;;;24.83;18.73;;;7.60;99.90;;;;;;5097143;28;20433;-59
2022/11/13 03:00:07;;;;;;;29.92;19.38;;;7.60;99.90;;;;;;5116235;28;20050;-59
2022/11/13 03:02:33;;;;;;;26.42;18.88;;;7.60;99.90;;;;;;5116207;28;20035;-59
2022/11/13 03:04:59;;;;;;;21.40;17.52;;;7.60;99.90;;;;;;5116126;28;20090;-59
2022/11/13 03:07:24;;;;;;;22.88;17.35;;;7.60;99.90;;;;;;5116048;28;20532;-59
2022/11/13 03:09:50;;;;;;;27.75;18.70;;;7.60;99.90;;;;;;5116210;28;20488;-59
2022/11/13 03:12:15;;;;;;;23.17;18.02;;;7.60;99.90;;;;;;5116089;28;20044;-59
2022/11/13 03:14:41;;;;;;;27.80;18.38;;;7.70;99.90;;;;;;5116078;28;20114;-59
2022/11/13 03:17:07;;;;;;;21.90;17.30;;;7.60;99.90;;;;;;5113101;28;20505;-59
2022/11/13 03:19:32;;;;;;;21.73;17.45;;;7.60;99.90;;;;;;5095386;28;20035;-59
2022/11/13 03:21:58;;;;;;;22.85;17.48;;;7.60;99.90;;;;;;5093994;28;20032;-59
2022/11/13 03:24:24;;;;;;;22.65;16.48;;;7.60;99.90;;;;;;5095316;28;20414;-59
2022/11/13 03:26:49;;;;;;;21.95;16.70;;;7.60;99.90;;;;;;5095175;28;20398;-59
2022/11/13 03:29:15;;;;;;;19.83;16.52;;;7.60;99.90;;;;;;5095435;28;20568;-59
2022/11/13 03:31:41;;;;;;;16.85;14.90;;;7.60;99.90;;;;;;5095718;28;20047;-59
2022/11/13 03:34:06;;;;;;;20.33;15.65;;;7.60;99.90;;;;;;5095396;28;20122;-59
2022/11/13 03:36:32;;;;;;;20.55;15.60;;;7.50;99.90;;;;;;5077342;28;20036;-59
2022/11/13 03:38:58;;;;;;;21.25;15.90;;;7.50;99.90;;;;;;5095222;28;20474;-59
2022/11/13 03:41:23;;;;;;;21.58;15.75;;;7.50;99.90;;;;;;5095294;28;20032;-59
2022/11/13 03:43:49;;;;;;;21.95;17.27;;;7.40;99.90;;;;;;5095406;28;20032;-59
2022/11/13 03:46:14;;;;;;;22.95;18.17;;;7.40;99.90;;;;;;5094810;28;20044;-59
2022/11/13 03:48:40;;;;;;;23.58;16.92;;;7.40;99.90;;;;;;5094498;28;20115;-59
2022/11/13 03:51:06;;;;;;;20.95;15.60;;;7.40;99.90;;;;;;5095275;28;20386;-59
2022/11/13 03:53:32;;;;;;;18.95;15.80;;;7.40;99.90;;;;;;5095040;28;20071;-59
2022/11/13 03:55:58;;;;;;;19.65;15.10;;;7.50;99.90;;;;;;5095109;28;20092;-60
2022/11/13 03:58:23;;;;;;;20.05;15.38;;;7.50;99.90;;;;;;5094972;28;20051;-59
2022/11/13 04:00:50;;;;;;;24.15;16.27;;;7.50;99.90;;;;;;5094554;28;20044;-59
2022/11/13 04:03:15;;;;;;;20.08;14.52;;;7.50;99.90;;;;;;5095160;28;20064;-59
2022/11/13 04:05:42;;;;;;;15.48;13.40;;;7.40;99.90;;;;;;5094698;28;20079;-59
2022/11/13 04:08:08;;;;;;;19.08;15.23;;;7.40;99.90;;;;;;5094902;28;20050;-59
2022/11/13 04:10:33;;;;;;;20.85;15.30;;;7.50;99.90;;;;;;5094623;28;20044;-59
2022/11/13 04:12:59;;;;;;;18.88;15.00;;;7.40;99.90;;;;;;5094603;28;20194;-59
2022/11/13 04:15:24;;;;;;;20.10;15.18;;;7.50;99.90;;;;;;5094370;28;20123;-59
2022/11/13 04:17:50;;;;;;;18.83;14.57;;;7.50;99.90;;;;;;5094525;28;20032;-59
2022/11/13 04:20:16;;;;;;;21.02;15.10;;;7.50;99.90;;;;;;5094399;28;20044;-59
2022/11/13 04:22:42;;;;;;;20.15;15.15;;;7.50;99.90;;;;;;5094566;28;20466;-59
2022/11/13 04:25:08;;;;;;;19.70;14.27;;;7.50;99.90;;;;;;5094238;28;20043;-59
2022/11/13 04:27:34;;;;;;;18.08;13.82;;;7.50;99.90;;;;;;5075906;28;20040;-60
2022/11/13 04:29:59;;;;;;;18.27;13.55;;;7.40;99.90;;;;;;5093856;28;20067;-59
2022/11/13 04:32:25;;;;;;;18.38;14.00;;;7.50;99.90;;;;;;5094178;28;20036;-59
2022/11/13 04:34:51;;;;;;;19.27;14.98;;;7.40;99.90;;;;;;5094750;28;20044;-59
2022/11/13 04:37:16;;;;;;;17.95;14.80;;;7.50;99.90;;;;;;5094742;28;20036;-59
2022/11/13 04:39:42;;;;;;;19.13;14.68;;;7.40;99.90;;;;;;5094859;28;20036;-59
2022/11/13 04:44:54;;;;;;;17.00;13.93;;;7.40;99.90;;;;;;5094120;28;20434;-59
2022/11/13 04:47:19;;;;;;;19.88;15.27;;;7.50;99.90;;;;;;5094396;28;20083;-59
2022/11/13 04:49:45;;;;;;;17.85;14.82;;;7.40;99.90;;;;;;5094425;28;20047;-59
2022/11/13 04:52:11;;;;;;;20.65;14.32;;;7.40;99.90;;;;;;5093852;28;20481;-59
2022/11/13 04:54:37;;;;;;;16.38;14.48;;;7.40;99.90;;;;;;5094053;28;20506;-59
2022/11/13 04:57:03;;;;;;;18.15;13.88;;;7.30;99.90;;;;;;5094290;28;20119;-59
2022/11/13 04:59:28;;;;;;;16.13;14.02;;;7.40;99.90;;;;;;5093670;28;20054;-59
2022/11/13 05:01:54;;;;;;;21.75;14.50;;;7.40;99.90;;;;;;5094015;28;20107;-60
2022/11/13 05:04:20;;;;;;;19.13;13.88;;;7.40;99.90;;;;;;5093951;28;20039;-59
2022/11/13 05:06:47;;;;;;;17.70;13.75;;;7.40;99.90;;;;;;5093944;28;20036;-59
2022/11/13 05:09:13;;;;;;;20.70;14.82;;;7.40;99.90;;;;;;5093966;28;20119;-59
2022/11/13 05:11:39;;;;;;;17.58;14.60;;;7.40;99.90;;;;;;5092945;28;20119;-59
2022/11/13 05:14:05;;;;;;;17.60;13.75;;;7.30;99.90;;;;;;5093439;28;20040;-59
2022/11/13 05:16:30;;;;;;;22.23;15.13;;;7.30;99.90;;;;;;5093685;28;20043;-59
2022/11/13 05:18:57;;;;;;;17.15;13.95;;;7.30;99.90;;;;;;5093637;28;20040;-59
2022/11/13 05:21:23;;;;;;;16.77;13.50;;;7.30;99.90;;;;;;5093669;28;20092;-59
2022/11/13 05:23:48;;;;;;;19.52;14.70;;;7.30;99.90;;;;;;5093413;28;20035;-59
2022/11/13 05:26:14;;;;;;;17.80;13.80;;;7.30;99.90;;;;;;5093670;28;20436;-59
2022/11/13 05:28:40;;;;;;;17.95;14.70;;;7.30;99.90;;;;;;5093152;28;20040;-59
2022/11/13 05:31:12;;;;;;;20.15;15.43;;;7.30;99.90;;;;;;5093620;28;20044;-59
2022/11/13 05:33:39;;;;;;;19.30;14.63;;;7.30;99.90;;;;;;5093502;28;20046;-59
2022/11/13 05:36:08;;;;;;;23.10;14.70;;;7.30;99.90;;;;;;5093441;28;20062;-59
2022/11/13 05:38:34;;;;;;;19.67;15.45;;;7.30;99.90;;;;;;5093379;28;20040;-59
2022/11/13 05:41:08;;;;;;;21.65;15.07;;;7.20;99.90;;;;;;5093470;28;20059;-59
2022/11/13 05:43:34;;;;;;;17.58;14.43;;;7.20;99.90;;;;;;5093322;28;20046;-59
2022/11/13 05:46:06;;;;;;;18.02;13.85;;;7.30;99.90;;;;;;5093159;28;20051;-59
2022/11/13 05:48:32;;;;;;;18.05;13.85;;;7.20;99.90;;;;;;5093081;28;20084;-59
2022/11/13 05:51:04;;;;;;;18.05;14.02;;;7.20;99.90;;;;;;5074468;28;20050;-59
2022/11/13 05:53:32;;;;;;;19.73;15.15;;;7.20;99.90;;;;;;5092865;28;20035;-59
2022/11/13 05:56:05;;;;;;;17.15;14.68;;;7.20;99.90;;;;;;5092857;28;20536;-59
2022/11/13 05:58:31;;;;;;;19.85;14.32;;;7.20;99.90;;;;;;5092696;28;20055;-59
2022/11/13 06:01:06;;;;;;;18.38;13.93;;;7.20;99.90;;;;;;5092747;28;20118;-59
2022/11/13 06:03:32;;;;;;;18.00;13.52;;;7.20;99.90;;;;;;5092329;28;20090;-59
2022/11/13 06:05:58;;;;;;;17.60;14.07;;;7.10;99.90;;;;;;5092438;28;20044;-59
2022/11/13 06:08:24;;;;;;;18.63;13.73;;;7.10;99.90;;;;;;5092542;28;20478;-59
2022/11/13 06:10:49;;;;;;;18.20;14.32;;;7.10;99.90;;;;;;5092892;28;20089;-60
2022/11/13 06:13:15;;;;;;;21.10;13.48;;;7.10;99.90;;;;;;5092596;28;20036;-59
2022/11/13 06:15:44;;;;;;;19.48;13.18;;;7.10;99.90;;;;;;5092500;28;20085;-59
2022/11/13 06:18:09;;;;;;;20.27;13.55;;;7.00;99.90;;;;;;5092414;28;20036;-59
2022/11/13 06:20:36;;;;;;;17.95;13.20;;;7.00;99.90;;;;;;5092273;28;20393;-59
2022/11/13 06:23:02;;;;;;;16.63;12.65;;;7.00;99.90;;;;;;5092342;28;20038;-59
2022/11/13 06:25:28;;;;;;;18.65;14.32;;;7.00;99.90;;;;;;5074354;28;20393;-59
2022/11/13 06:27:53;;;;;;;17.90;12.88;;;6.90;99.90;;;;;;5092397;28;20044;-59
2022/11/13 06:30:19;;;;;;;17.58;13.65;;;6.90;99.90;;;;;;5092469;28;20044;-59
2022/11/13 06:32:52;;;;;;;20.27;13.90;;;6.90;99.90;;;;;;5092552;28;20092;-59
2022/11/13 06:35:17;;;;;;;17.27;13.13;;;6.80;99.90;;;;;;5092472;28;20118;-59
2022/11/13 06:37:43;;;;;;;17.48;13.32;;;6.80;99.90;;;;;;5092512;28;20119;-59
2022/11/13 06:40:09;;;;;;;17.20;12.93;;;6.80;99.90;;;;;;5092132;28;20040;-59
2022/11/13 06:42:35;;;;;;;15.07;12.48;;;6.70;99.90;;;;;;5092372;28;20067;-59
2022/11/13 06:45:00;;;;;;;15.48;12.15;;;6.70;99.90;;;;;;5091861;28;20098;-59
2022/11/13 06:47:27;;;;;;;16.05;12.52;;;6.80;99.90;;;;;;5092054;28;20088;-59
2022/11/13 06:49:52;;;;;;;16.38;13.18;;;6.70;99.90;;;;;;5091971;28;20478;-59
2022/11/13 06:52:18;;;;;;;18.02;13.80;;;6.60;99.90;;;;;;5074219;28;20040;-59
2022/11/13 06:54:44;;;;;;;15.52;12.70;;;6.60;99.90;;;;;;5092026;28;20490;-59
2022/11/13 06:57:09;;;;;;;15.30;12.50;;;6.50;99.90;;;;;;5092354;28;20127;-59
2022/11/13 06:59:35;;;;;;;15.88;12.25;;;6.50;99.90;;;;;;5091955;28;20062;-59
2022/11/13 07:02:01;;;;;;;19.20;13.32;;;6.50;99.90;;;;;;5090490;28;20089;-59
2022/11/13 07:04:27;;;;;;;17.85;12.68;;;6.40;99.90;;;;;;5091833;28;20123;-59
2022/11/13 07:06:52;;;;;;;15.10;12.70;;;6.40;99.90;;;;;;5092125;28;20141;-59
2022/11/13 07:09:18;;;;;;;17.50;12.77;;;6.40;99.90;;;;;;5092044;28;20123;-59
2022/11/13 07:11:44;;;;;;;16.33;12.73;;;6.40;99.90;;;;;;5091881;28;20035;-59
2022/11/13 07:14:12;;;;;;;15.70;12.20;;;6.30;99.90;;;;;;5091708;28;20072;-59
2022/11/13 07:16:38;;;;;;;19.02;11.70;;;6.30;99.90;;;;;;5091765;28;20036;-59
2022/11/13 07:19:04;;;;;;;15.80;10.98;;;6.30;99.90;;;;;;5090483;28;20390;-59
2022/11/13 07:21:30;;;;;;;18.20;12.25;;;6.30;99.90;;;;;;5089704;28;20451;-59
2022/11/13 07:23:55;;;;;;;18.13;11.75;;;6.30;99.90;;;;;;5091281;28;20043;-59
2022/11/13 07:26:21;;;;;;;17.00;12.00;;;6.30;99.90;;;;;;5092115;28;20441;-59
2022/11/13 07:28:48;;;;;;;16.67;12.63;;;6.30;99.90;;;;;;5092280;28;20135;-59
2022/11/13 07:31:16;;;;;;;15.80;12.18;;;6.30;99.90;;;;;;5092227;28;20044;-59
2022/11/13 07:33:42;;;;;;;16.33;13.38;;;6.30;99.90;;;;;;5091936;28;20032;-59
2022/11/13 07:36:09;;;;;;;17.13;12.35;;;6.30;99.90;;;;;;5095335;28;20083;-59
2022/11/13 07:38:35;;;;;;;17.10;12.55;;;6.30;99.90;;;;;;5095481;28;20032;-59
2022/11/13 07:41:01;;;;;;;16.73;12.20;;;6.30;99.90;;;;;;5095335;28;20115;-59
2022/11/13 07:43:27;;;;;;;14.70;12.93;;;6.20;99.90;;;;;;5095529;28;20032;-59
2022/11/13 07:45:54;;;;;;;15.70;12.85;;;6.20;99.90;;;;;;5095371;28;20109;-59
2022/11/13 07:48:22;;;;;;;16.10;11.80;;;6.40;99.90;;;;;;5094475;28;20047;-59
2022/11/13 07:50:49;;;;;;;15.82;12.23;;;6.40;99.90;;;;;;5076350;28;20028;-59
2022/11/13 07:53:15;;;;;;;17.95;12.13;;;6.40;99.90;;;;;;5093703;28;20048;-59
2022/11/13 07:55:41;;;;;;;16.67;12.50;;;6.40;99.90;;;;;;5077231;28;20101;-59
2022/11/13 07:58:07;;;;;;;17.98;12.63;;;6.40;99.90;;;;;;5095011;28;20040;-59
2022/11/13 08:00:34;;;;;;;14.90;11.85;;;6.70;99.90;;;;;;5095025;28;20040;-59
2022/11/13 08:03:12;;;;;;;17.05;12.57;;;6.70;99.90;;;;;;5095099;28;20398;-59
2022/11/13 08:05:38;;;;;;;17.92;12.18;;;6.80;99.90;;;;;;5095339;28;20048;-59
2022/11/13 08:08:04;;;;;;;15.88;12.30;;;6.90;99.90;;;;;;5077644;28;20387;-60
2022/11/13 08:10:30;;;;;;;15.70;12.13;;;7.00;99.90;;;;;;5095107;28;20182;-59
2022/11/13 08:13:01;;;;;;;18.98;12.68;;;7.20;99.90;;;;;;5095283;28;20131;-59
2022/11/13 08:15:28;;;;;;;16.02;12.00;;;7.50;99.90;;;;;;5094990;28;20047;-59
2022/11/13 08:17:58;;;;;;;13.20;11.10;;;7.70;99.90;;;;;;5095102;28;20040;-59
2022/11/13 08:20:26;;;;;;;14.60;11.27;;;8.00;99.90;;;;;;5092895;28;20112;-60
2022/11/13 08:22:55;;;;;;;15.13;10.85;;;8.30;99.90;;;;;;5092832;28;20040;-60
2022/11/13 08:25:20;;;;;;;13.95;11.15;;;8.60;99.90;;;;;;5095117;28;20052;-59
2022/11/13 08:27:46;;;;;;;15.23;10.23;;;8.80;99.90;;;;;;5094820;28;20039;-60
2022/11/13 08:30:13;;;;;;;12.07;9.68;;;9.10;99.90;;;;;;5095319;28;20540;-60
2022/11/13 08:32:38;;;;;;;11.52;9.95;;;9.30;99.90;;;;;;5076959;28;20119;-59
2022/11/13 08:35:04;;;;;;;12.23;10.20;;;9.30;99.90;;;;;;5095302;28;20441;-59
2022/11/13 08:37:31;;;;;;;14.40;11.60;;;9.40;99.90;;;;;;5094697;28;20097;-59
2022/11/13 08:39:57;;;;;;;13.38;10.10;;;9.30;99.90;;;;;;5094834;28;20050;-60
2022/11/13 08:42:22;;;;;;;12.82;9.93;;;9.30;99.90;;;;;;5094289;28;20478;-60
2022/11/13 08:44:48;;;;;;;12.43;10.27;;;9.30;99.90;;;;;;5094702;28;20047;-59
2022/11/13 08:47:14;;;;;;;12.80;9.93;;;9.20;99.90;;;;;;5094414;28;20032;-59
2022/11/13 08:49:39;;;;;;;11.48;9.82;;;9.20;99.90;;;;;;5093409;28;20386;-59
2022/11/13 08:52:05;;;;;;;13.05;9.55;;;9.20;99.90;;;;;;5090723;28;20040;-59
2022/11/13 08:54:30;;;;;;;13.90;10.63;;;9.30;99.90;;;;;;5093467;28;20043;-59
2022/11/13 08:56:56;;;;;;;13.10;10.23;;;9.40;99.90;;;;;;5094000;28;20457;-59
2022/11/13 08:59:23;;;;;;;11.63;10.10;;;9.40;99.90;;;;;;5093805;28;20521;-59
2022/11/13 09:01:49;;;;;;;11.80;9.98;;;9.40;99.90;;;;;;5094192;28;20076;-59
2022/11/13 09:04:15;;;;;;;13.45;10.35;;;9.50;99.90;;;;;;5094049;28;20355;-59
2022/11/13 09:06:40;;;;;;;11.55;10.05;;;9.50;99.90;;;;;;5075920;28;20039;-59
2022/11/13 09:09:06;;;;;;;15.20;11.00;;;9.60;99.90;;;;;;5091620;28;20032;-59
2022/11/13 09:11:32;;;;;;;13.48;10.38;;;9.60;99.90;;;;;;5091464;28;20060;-59
2022/11/13 09:13:58;;;;;;;15.73;10.88;;;9.60;99.90;;;;;;5093644;28;20032;-59
2022/11/13 09:16:24;;;;;;;12.20;9.70;;;9.70;99.90;;;;;;5093700;28;20036;-59
2022/11/13 09:18:50;;;;;;;12.30;9.77;;;9.70;99.90;;;;;;5092266;28;20089;-60
2022/11/13 09:21:16;;;;;;;12.73;10.63;;;9.70;99.90;;;;;;5090942;28;20028;-60
2022/11/13 09:23:42;;;;;;;14.13;10.48;;;9.80;99.90;;;;;;5091420;28;20028;-60
2022/11/13 09:26:08;;;;;;;12.27;9.48;;;9.80;99.90;;;;;;5092615;28;20569;-60
2022/11/13 09:28:34;;;;;;;10.82;9.18;;;9.80;99.90;;;;;;5092092;28;20032;-59
2022/11/13 09:31:04;;;;;;;11.38;8.85;;;9.90;99.90;;;;;;5092377;28;20131;-60
2022/11/13 09:33:29;;;;;;;10.13;8.68;;;9.90;99.90;;;;;;5092922;28;20093;-60
2022/11/13 09:35:55;;;;;;;11.15;8.95;;;9.90;99.90;;;;;;5092723;28;20443;-60
2022/11/13 09:38:20;;;;;;;10.63;8.73;;;10.00;99.90;;;;;;5091931;28;20036;-60
2022/11/13 09:40:59;;;;;;;11.43;9.50;;;10.00;99.90;;;;;;5092420;28;20122;-60
2022/11/13 09:43:42;;;;;;;11.13;9.73;;;10.10;99.90;;;;;;5092900;28;20093;-60
2022/11/13 09:46:24;;;;;;;11.32;9.77;;;10.10;99.90;;;;;;5092406;28;20490;-59
2022/11/13 09:48:55;;;;;;;11.38;9.88;;;10.10;99.90;;;;;;5092037;28;20394;-60
2022/11/13 09:51:25;;;;;;;13.05;9.27;;;10.10;99.90;;;;;;5090786;28;20754;-60
2022/11/13 09:53:51;;;;;;;11.43;9.77;;;10.20;99.90;;;;;;5091546;28;20036;-60
2022/11/13 09:56:38;;;;;;;12.70;9.15;;;10.20;99.90;;;;;;5073685;28;20063;-60
2022/11/13 09:59:30;;;;;;;10.65;8.65;;;10.30;99.90;;;;;;5092054;28;20111;-60
2022/11/13 10:02:13;;;;;;;10.40;9.20;;;10.50;99.90;;;;;;5092567;28;20090;-60
2022/11/13 10:05:00;;;;;;;10.52;9.32;;;10.50;99.90;;;;;;5092137;28;20087;-60
2022/11/13 10:07:40;;;;;;;10.65;8.73;;;10.60;99.90;;;;;;5092227;28;20136;-60
2022/11/13 10:10:05;;;;;;;;;;;10.80;99.90;;;;;;5092730;28;20039;-60
2022/11/13 10:12:32;;;;;;;14.70;8.63;;;10.80;99.90;;;;;;5092211;28;20373;-60
2022/11/13 10:15:01;;;;;;;10.20;7.97;;;10.90;99.90;;;;;;5092095;28;20066;-60
2022/11/13 10:17:42;;;;;;;11.48;8.70;;;11.00;99.90;;;;;;5056437;28;20486;-60
2022/11/13 10:20:21;;;;;;;10.60;7.97;;;11.00;99.90;;;;;;5090571;28;20545;-61
2022/11/13 10:23:11;;;;;;;10.20;8.30;;;11.10;99.90;;;;;;5072320;28;20036;-59
2022/11/13 10:25:38;;;;;;;13.73;8.50;;;11.20;99.90;;;;;;5091834;28;20482;-59
2022/11/13 10:28:24;;;;;;;11.13;8.20;;;11.20;99.90;;;;;;5091910;28;20040;-59
2022/11/13 10:30:50;;;;;;;10.07;8.32;;;11.30;99.90;;;;;;5091922;28;20040;-59
2022/11/13 10:33:22;;;;;;;9.20;8.27;;;11.50;99.90;;;;;;5092111;28;20097;-59
2022/11/13 10:36:25;;;;;;;11.80;8.10;;;11.50;99.90;;;;;;5091786;28;20095;-59
2022/11/13 10:39:00;;;;;;;9.30;8.27;;;11.50;99.90;;;;;;5092130;28;20094;-59
2022/11/13 10:41:26;;;;;;;9.73;8.13;;;11.50;99.90;;;;;;5091764;28;20501;-59
2022/11/13 10:44:05;;;;;;;10.93;8.65;;;11.60;99.90;;;;;;5091959;28;20032;-59
2022/11/13 10:46:31;;;;;;;9.50;8.32;;;11.60;99.90;;;;;;5091877;28;20082;-59
2022/11/13 10:49:09;;;;;;;9.27;8.38;;;11.70;99.90;;;;;;5091396;28;20525;-59
2022/11/13 10:51:35;;;;;;;10.95;8.00;;;11.80;99.90;;;;;;5091749;28;20091;-59
2022/11/13 10:54:25;;;;;;;11.70;7.75;;;11.90;99.90;;;;;;5091701;28;20047;-59
2022/11/13 10:57:03;;;;;;;11.75;8.57;;;11.90;99.90;;;;;;5091952;28;20132;-59
2022/11/13 10:59:43;;;;;;;18.05;8.63;;;11.90;99.90;;;;;;5094721;28;20060;-59
2022/11/13 11:02:16;;;;;;;14.43;8.23;;;12.00;99.90;;;;;;5112287;28;20083;-60
2022/11/13 11:04:42;;;;;;;9.80;7.90;;;12.00;99.90;;;;;;5111986;28;20580;-59
2022/11/13 11:07:20;;;;;;;10.73;8.13;;;12.10;99.90;;;;;;5111897;28;20047;-59
2022/11/13 11:09:47;;;;;;;9.38;8.38;;;12.00;99.90;;;;;;5113585;28;20032;-59
2022/11/13 11:12:17;;;;;;;15.23;8.65;;;12.00;99.90;;;;;;5115665;28;20456;-59
2022/11/13 11:15:03;;;;;;;11.13;8.13;;;12.00;99.90;;;;;;5115859;28;20432;-60
2022/11/13 11:17:53;;;;;;;10.55;8.15;;;12.20;99.90;;;;;;5013030;28;20536;-60
2022/11/13 11:20:37;;;;;;;10.48;7.75;;;12.20;99.90;;;;;;5013285;28;20038;-59
2022/11/13 11:23:27;;;;;;;9.40;7.50;;;12.30;99.90;;;;;;5013145;28;20053;-59
2022/11/13 11:25:58;;;;;;;9.93;7.63;;;12.40;99.90;;;;;;5013131;28;20555;-59
2022/11/13 11:28:38;;;;;;;9.90;7.03;;;12.60;99.90;;;;;;5007677;28;20492;-59
2022/11/13 11:31:43;;;;;;;8.25;6.93;;;12.70;99.90;;;;;;4993358;28;20092;-59
2022/11/13 11:34:14;;;;;;;8.48;7.22;;;12.90;99.90;;;;;;4993205;28;20078;-59
2022/11/13 11:37:04;;;;;;;10.50;7.70;;;13.20;99.90;;;;;;4977362;28;20056;-60
2022/11/13 11:39:37;;;;;;;9.70;7.60;;;13.40;99.90;;;;;;4993151;28;20043;-59
2022/11/13 11:42:16;;;;;;;9.35;7.28;;;13.60;99.90;;;;;;4993380;28;20464;-59
2022/11/13 11:44:54;;;;;;;;;;;13.60;99.90;;;;;;4993501;28;20042;-59
2022/11/13 11:47:20;;;;;;;10.35;7.60;;;13.80;99.90;;;;;;4993262;28;19917;-60
2022/11/13 11:49:45;;;;;;;11.57;7.70;;;13.80;99.90;;;;;;4992163;28;20061;-59
2022/11/13 11:52:35;;;;;;;9.00;7.15;;;14.10;99.90;;;;;;4990818;28;20046;-58
2022/11/13 11:55:28;;;;;;;8.77;6.95;;;14.20;99.90;;;;;;5060996;28;20510;-59
2022/11/13 11:58:05;;;;;;;8.68;6.45;;;14.50;99.90;;;;;;5094549;28;20115;-59
2022/11/13 12:00:33;;;;;;;7.60;6.28;;;14.60;99.90;;;;;;5094278;28;20052;-59
2022/11/13 12:03:28;;;;;;;9.15;6.63;;;14.80;99.90;;;;;;5094459;28;20051;-59
2022/11/13 12:06:07;;;;;;;8.68;6.00;;;15.10;99.90;;;;;;5094470;28;20555;-59
2022/11/13 12:08:58;;;;;;;6.75;6.05;;;15.20;99.90;;;;;;5094285;28;20485;-59
2022/11/13 12:11:35;;;;;;;7.90;5.93;;;15.40;99.90;;;;;;5094455;28;20043;-59
2022/11/13 12:14:39;;;;;;;8.13;6.28;;;15.30;99.90;;;;;;5094045;28;20482;-59
2022/11/13 12:17:37;;;;;;;9.60;6.25;;;15.20;99.90;;;;;;5094047;28;20040;-60
2022/11/13 12:20:18;;;;;;;7.53;5.90;;;15.20;99.90;;;;;;5092744;28;20382;-60
2022/11/13 12:22:55;;;;;;;7.57;6.45;;;15.30;99.90;;;;;;5091784;28;20363;-59
2022/11/13 12:25:42;;;;;;;11.75;6.88;;;15.20;99.90;;;;;;5093079;28;20044;-59
2022/11/13 12:28:32;;;;;;;10.85;6.60;;;15.20;99.90;;;;;;5093575;28;20076;-59
2022/11/13 12:31:27;;;;;;;8.87;6.30;;;15.30;99.90;;;;;;5093855;28;20039;-59
2022/11/13 12:34:19;;;;;;;9.88;6.50;;;15.10;99.90;;;;;;4991839;28;20038;-59
2022/11/13 12:36:46;;;;;;;7.82;6.72;;;14.80;99.90;;;;;;4992109;28;20047;-59
2022/11/13 12:39:14;;;;;;;7.35;6.43;;;14.80;99.90;;;;;;4991845;28;20493;-59
2022/11/13 12:41:58;;;;;;;7.15;6.22;;;14.80;99.90;;;;;;4991921;28;20076;-59
2022/11/13 12:44:26;;;;;;;8.10;6.97;;;14.80;99.90;;;;;;4985471;28;20054;-59
2022/11/13 12:46:54;;;;;;;8.43;6.65;;;14.70;99.90;;;;;;4991655;28;20042;-59
2022/11/13 12:49:23;;;;;;;7.88;6.78;;;14.60;99.90;;;;;;4995439;28;20092;-59
2022/11/13 12:51:54;;;;;;;8.20;7.18;;;14.60;99.90;;;;;;5009651;28;20128;-59